createdAt,value
2022-12-06T00:01:43.235Z,60.90
2022-12-06T00:04:17.502Z,62.58
2022-12-06T00:06:53.346Z,61.72
2022-12-06T00:09:28.181Z,62.80
2022-12-06T00:12:00.286Z,57.78
2022-12-06T00:14:32.313Z,62.47
2022-12-06T00:17:04.281Z,59.97
2022-12-06T00:19:36.321Z,61.63
2022-12-06T00:22:08.375Z,69.03
2022-12-06T00:24:40.547Z,61.75
2022-12-06T00:27:13.571Z,61.47
2022-12-06T00:29:45.517Z,55.47
2022-12-06T00:32:19.677Z,54.47
2022-12-06T00:34:51.925Z,64.97
2022-12-06T00:37:23.849Z,57.50
2022-12-06T00:39:55.725Z,56.72
2022-12-06T00:42:27.909Z,57.92
2022-12-06T00:44:59.811Z,59.50
2022-12-06T00:47:31.789Z,60.45
2022-12-06T00:50:04.203Z,56.70
2022-12-06T00:52:36.316Z,56.20
2022-12-06T00:55:08.721Z,60.20
2022-12-06T00:57:40.893Z,57.17
2022-12-06T01:00:13.570Z,62.00
2022-12-06T01:02:45.569Z,60.08
2022-12-06T01:05:17.790Z,56.92
2022-12-06T01:07:49.838Z,59.55
2022-12-06T01:10:22.542Z,56.35
2022-12-06T01:12:54.575Z,54.50
2022-12-06T01:15:26.773Z,57.95
2022-12-06T01:17:59.066Z,56.58
2022-12-06T01:20:30.993Z,55.28
2022-12-06T01:23:02.853Z,56.97
2022-12-06T01:25:36.360Z,55.22
2022-12-06T01:28:08.547Z,57.60
2022-12-06T01:30:41.043Z,58.30
2022-12-06T01:33:12.966Z,57.35
2022-12-06T01:35:44.872Z,60.05
2022-12-06T01:38:16.876Z,58.63
2022-12-06T01:40:49.413Z,57.83
2022-12-06T01:43:39.982Z,55.42
2022-12-06T01:46:34.023Z,57.50
2022-12-06T01:49:11.717Z,55.80
2022-12-06T01:51:47.778Z,53.80
2022-12-06T01:54:21.222Z,60.95
2022-12-06T01:56:56.531Z,57.42
2022-12-06T01:59:29.816Z,60.78
2022-12-06T02:02:02.555Z,64.57
2022-12-06T02:04:34.654Z,66.75
2022-12-06T02:07:08.025Z,64.45
2022-12-06T02:09:40.687Z,64.13
2022-12-06T02:12:14.823Z,71.32
2022-12-06T02:14:50.760Z,61.47
2022-12-06T02:17:53.729Z,65.45
2022-12-06T02:21:07.995Z,66.05
2022-12-06T02:23:58.842Z,70.18
2022-12-06T02:26:45.878Z,65.22
2022-12-06T02:29:40.658Z,76.80
2022-12-06T02:32:19.394Z,66.72
2022-12-06T02:34:59.828Z,67.78
2022-12-06T02:37:42.754Z,68.25
2022-12-06T02:40:20.197Z,69.45
2022-12-06T02:42:57.336Z,69.05
2022-12-06T02:45:33.320Z,69.60
2022-12-06T02:48:07.662Z,68.65
2022-12-06T02:50:47.411Z,69.10
2022-12-06T02:53:23.140Z,66.35
2022-12-06T02:55:56.417Z,63.85
2022-12-06T02:58:28.370Z,58.88
2022-12-06T03:01:03.045Z,67.22
2022-12-06T03:03:46.823Z,57.92
2022-12-06T03:06:50.617Z,60.05
2022-12-06T03:09:28.703Z,66.40
2022-12-06T03:12:26.348Z,68.35
2022-12-06T03:15:07.331Z,57.90
2022-12-06T03:18:02.445Z,60.25
2022-12-06T03:20:45.090Z,62.38
2022-12-06T03:23:22.272Z,62.53
2022-12-06T03:25:58.185Z,61.47
2022-12-06T03:28:31.139Z,66.07
2022-12-06T03:31:09.698Z,64.90
2022-12-06T03:33:49.690Z,73.80
2022-12-06T03:36:22.835Z,65.47
2022-12-06T03:39:05.092Z,71.40
2022-12-06T03:41:43.566Z,68.00
2022-12-06T03:44:16.008Z,61.95
2022-12-06T03:46:51.483Z,63.83
2022-12-06T03:49:37.066Z,59.90
2022-12-06T03:52:09.529Z,64.22
2022-12-06T03:54:42.755Z,58.10
2022-12-06T03:57:14.983Z,50.38
2022-12-06T03:59:46.946Z,51.20
2022-12-06T04:02:18.992Z,55.50
2022-12-06T04:04:51.031Z,53.33
2022-12-06T04:07:23.197Z,56.75
2022-12-06T04:10:03.524Z,66.45
2022-12-06T04:12:54.590Z,51.45
2022-12-06T04:18:14.194Z,52.72
2022-12-06T04:21:13.813Z,58.70
2022-12-06T04:23:51.375Z,55.13
2022-12-06T04:26:24.194Z,52.55
2022-12-06T04:29:14.486Z,55.00
2022-12-06T04:32:05.203Z,55.60
2022-12-06T04:34:55.845Z,55.00
2022-12-06T04:37:46.462Z,57.90
2022-12-06T04:40:18.350Z,57.17
2022-12-06T04:43:08.812Z,58.22
2022-12-06T04:45:40.674Z,59.65
2022-12-06T04:48:12.552Z,58.83
2022-12-06T04:50:50.988Z,53.65
2022-12-06T04:53:23.976Z,70.80
2022-12-06T04:55:56.136Z,55.80
2022-12-06T04:58:28.025Z,52.78
2022-12-06T05:01:01.219Z,49.83
2022-12-06T05:03:33.337Z,53.55
2022-12-06T05:06:05.838Z,53.45
2022-12-06T05:08:37.825Z,49.15
2022-12-06T05:11:09.719Z,55.53
2022-12-06T05:13:41.701Z,50.75
2022-12-06T05:16:13.928Z,51.63
2022-12-06T05:18:45.908Z,48.33
2022-12-06T05:21:21.437Z,49.30
2022-12-06T05:23:55.538Z,56.95
2022-12-06T05:26:29.271Z,46.75
2022-12-06T05:29:01.169Z,46.20
2022-12-06T05:31:33.257Z,52.70
2022-12-06T05:34:05.197Z,45.88
2022-12-06T05:36:37.133Z,47.67
2022-12-06T05:39:09.013Z,48.60
2022-12-06T05:41:41.181Z,50.53
2022-12-06T05:44:13.237Z,56.33
2022-12-06T05:46:45.248Z,49.78
2022-12-06T05:49:17.126Z,53.47
2022-12-06T05:51:49.124Z,50.60
2022-12-06T05:54:21.253Z,50.08
2022-12-06T05:56:53.199Z,59.65
2022-12-06T05:59:25.073Z,50.70
2022-12-06T06:01:57.127Z,49.58
2022-12-06T06:04:29.371Z,53.92
2022-12-06T06:07:01.581Z,51.92
2022-12-06T06:09:33.476Z,45.88
2022-12-06T06:12:10.913Z,54.28
2022-12-06T06:14:44.334Z,52.13
2022-12-06T06:17:16.318Z,53.33
2022-12-06T06:19:51.429Z,63.90
2022-12-06T06:22:24.750Z,50.38
2022-12-06T06:24:56.764Z,59.30
2022-12-06T06:27:34.256Z,57.88
2022-12-06T06:30:12.041Z,71.72
2022-12-06T06:32:44.104Z,72.93
2022-12-06T06:35:16.183Z,72.07
2022-12-06T06:37:48.526Z,68.15
2022-12-06T06:40:20.460Z,74.85
2022-12-06T06:42:52.409Z,70.72
2022-12-06T06:45:28.717Z,66.60
2022-12-06T06:48:01.044Z,61.17
2022-12-06T06:50:33.021Z,81.38
2022-12-06T06:53:05.027Z,71.38
2022-12-06T06:55:37.032Z,79.75
2022-12-06T06:58:09.113Z,89.95
2022-12-06T07:00:42.715Z,69.38
2022-12-06T07:03:16.396Z,68.05
2022-12-06T07:05:56.484Z,65.43
2022-12-06T07:08:30.046Z,70.55
2022-12-06T07:11:02.038Z,67.15
2022-12-06T07:13:34.477Z,74.57
2022-12-06T07:16:08.391Z,69.32
2022-12-06T07:18:40.555Z,67.28
2022-12-06T07:21:15.162Z,69.78
2022-12-06T07:23:47.145Z,63.40
2022-12-06T07:26:22.273Z,62.78
2022-12-06T07:28:54.223Z,64.70
2022-12-06T07:31:28.469Z,68.85
2022-12-06T07:34:03.191Z,74.93
2022-12-06T07:36:35.142Z,66.65
2022-12-06T07:39:13.039Z,65.40
2022-12-06T07:42:05.454Z,71.90
2022-12-06T07:45:01.380Z,74.97
2022-12-06T07:47:36.425Z,68.05
2022-12-06T07:50:18.197Z,73.85
2022-12-06T07:52:51.263Z,60.47
2022-12-06T07:55:23.193Z,65.90
2022-12-06T07:57:55.191Z,66.75
2022-12-06T08:00:27.221Z,66.70
2022-12-06T08:02:59.213Z,70.47
2022-12-06T08:05:31.242Z,66.80
2022-12-06T08:08:03.281Z,71.90
2022-12-06T08:10:35.304Z,71.55
2022-12-06T08:13:07.249Z,65.00
2022-12-06T08:15:42.439Z,76.03
2022-12-06T08:18:14.405Z,72.57
2022-12-06T08:20:46.376Z,67.00
2022-12-06T08:23:18.240Z,70.85
2022-12-06T08:26:16.930Z,72.57
2022-12-06T08:28:49.025Z,68.25
2022-12-06T08:31:23.884Z,63.00
2022-12-06T08:33:55.974Z,62.50
2022-12-06T08:36:29.221Z,65.78
2022-12-06T08:39:01.659Z,67.38
2022-12-06T08:41:52.167Z,64.90
2022-12-06T08:44:26.592Z,62.05
2022-12-06T08:47:01.221Z,68.13
2022-12-06T08:49:33.402Z,68.20
2022-12-06T08:52:05.506Z,61.22
2022-12-06T08:54:38.530Z,65.50
2022-12-06T08:57:10.444Z,66.53
2022-12-06T08:59:43.193Z,71.10
2022-12-06T09:02:15.241Z,72.88
2022-12-06T09:04:52.043Z,83.85
2022-12-06T09:07:26.579Z,83.05
2022-12-06T09:09:58.714Z,71.43
2022-12-06T09:12:30.834Z,74.65
2022-12-06T09:15:02.925Z,73.40
2022-12-06T09:17:35.893Z,75.95
2022-12-06T09:20:08.947Z,74.18
2022-12-06T09:22:41.404Z,70.53
2022-12-06T09:25:13.408Z,66.75
2022-12-06T09:27:45.361Z,77.18
2022-12-06T09:30:17.918Z,76.78
2022-12-06T09:32:49.906Z,69.78
2022-12-06T09:35:25.233Z,86.28
2022-12-06T09:37:59.246Z,79.40
2022-12-06T09:41:04.176Z,88.15
2022-12-06T09:44:08.145Z,72.72
2022-12-06T09:47:33.070Z,92.35
2022-12-06T09:50:23.566Z,94.18
2022-12-06T09:53:19.067Z,77.70
2022-12-06T09:56:06.582Z,102.88
2022-12-06T09:58:44.442Z,94.03
2022-12-06T10:01:22.313Z,81.10
2022-12-06T10:04:14.718Z,107.97
2022-12-06T10:07:06.227Z,80.55
2022-12-06T10:09:40.920Z,96.93
2022-12-06T10:12:51.479Z,97.88
2022-12-06T10:15:32.702Z,84.80
2022-12-06T10:18:20.659Z,81.70
2022-12-06T10:21:13.435Z,88.18
2022-12-06T10:24:28.047Z,83.50
2022-12-06T10:27:10.666Z,95.72
2022-12-06T10:30:01.898Z,99.25
2022-12-06T10:33:20.365Z,86.82
2022-12-06T10:36:05.593Z,120.90
2022-12-06T10:38:44.149Z,109.53
2022-12-06T10:41:30.966Z,108.68
2022-12-06T10:44:13.641Z,103.68
2022-12-06T10:47:07.248Z,106.43
2022-12-06T10:49:52.852Z,90.47
2022-12-06T10:52:44.519Z,103.43
2022-12-06T10:55:29.933Z,105.18
2022-12-06T10:58:27.245Z,90.95
2022-12-06T11:01:07.953Z,103.25
2022-12-06T11:03:44.522Z,95.65
2022-12-06T11:06:43.922Z,98.63
2022-12-06T11:09:24.418Z,97.03
2022-12-06T11:11:56.986Z,89.50
2022-12-06T11:14:38.794Z,108.68
2022-12-06T11:17:23.058Z,100.50
2022-12-06T11:20:23.838Z,118.38
2022-12-06T11:23:33.118Z,119.55
2022-12-06T11:26:11.909Z,127.15
2022-12-06T11:28:55.965Z,117.28
2022-12-06T11:31:46.857Z,101.38
2022-12-06T11:37:06.731Z,121.88
2022-12-06T11:39:40.186Z,115.93
2022-12-06T11:42:15.196Z,112.07
2022-12-06T11:44:57.712Z,122.07
2022-12-06T11:47:29.889Z,114.38
2022-12-06T11:50:08.489Z,108.10
2022-12-06T11:52:50.841Z,107.95
2022-12-06T11:58:13.842Z,95.55
2022-12-06T12:01:11.118Z,103.57
2022-12-06T12:03:45.487Z,95.93
2022-12-06T12:06:29.426Z,103.97
2022-12-06T12:09:06.611Z,116.78
2022-12-06T12:11:42.570Z,123.40
2022-12-06T12:14:24.521Z,114.00
2022-12-06T12:17:01.653Z,104.05
2022-12-06T12:19:36.530Z,112.53
2022-12-06T12:22:24.189Z,120.60
2022-12-06T12:27:55.165Z,117.45
2022-12-06T12:30:32.656Z,109.38
2022-12-06T12:33:07.662Z,110.90
2022-12-06T12:35:51.511Z,123.38
2022-12-06T12:38:28.791Z,134.50
2022-12-06T12:41:12.827Z,115.13
2022-12-06T12:44:20.493Z,128.90
2022-12-06T12:47:19.206Z,121.93
2022-12-06T12:50:03.908Z,117.78
2022-12-06T12:52:41.010Z,109.97
2022-12-06T12:55:13.081Z,106.75
2022-12-06T12:57:51.142Z,129.23
2022-12-06T13:00:31.279Z,126.78
2022-12-06T13:03:28.579Z,118.63
2022-12-06T13:06:03.146Z,130.00
2022-12-06T13:08:37.603Z,134.70
2022-12-06T13:11:10.022Z,183.07
2022-12-06T13:13:50.344Z,168.63
2022-12-06T13:16:28.855Z,157.90
2022-12-06T13:19:02.519Z,151.60
2022-12-06T13:21:41.613Z,148.02
2022-12-06T13:24:23.648Z,137.73
2022-12-06T13:27:02.679Z,132.95
2022-12-06T13:30:00.738Z,135.68
2022-12-06T13:32:39.305Z,170.43
2022-12-06T13:35:35.752Z,129.82
2022-12-06T13:38:25.878Z,132.40
2022-12-06T13:41:06.262Z,182.75
2022-12-06T13:43:40.193Z,128.40
2022-12-06T13:46:25.776Z,166.30
2022-12-06T13:49:00.318Z,163.23
2022-12-06T13:51:32.836Z,115.13
2022-12-06T13:54:04.997Z,141.57
2022-12-06T13:56:36.893Z,158.38
2022-12-06T13:59:12.187Z,160.80
2022-12-06T14:01:46.546Z,168.27
2022-12-06T14:04:24.427Z,147.35
2022-12-06T14:07:00.428Z,163.25
2022-12-06T14:09:43.862Z,268.67
2022-12-06T14:12:22.474Z,393.80
2022-12-06T14:15:02.600Z,361.10
2022-12-06T14:20:33.928Z,203.68
2022-12-06T14:23:25.880Z,179.23
2022-12-06T14:26:13.208Z,206.13
2022-12-06T14:28:46.124Z,220.18
2022-12-06T14:31:22.262Z,226.40
2022-12-06T14:33:55.819Z,130.80
2022-12-06T14:36:32.359Z,207.52
2022-12-06T14:39:15.139Z,221.98
2022-12-06T14:42:33.710Z,169.52
2022-12-06T14:45:13.417Z,124.93
2022-12-06T14:47:45.708Z,165.40
2022-12-06T14:50:32.357Z,151.10
2022-12-06T14:53:34.672Z,157.00
2022-12-06T14:56:07.726Z,168.38
2022-12-06T14:58:43.194Z,144.35
2022-12-06T15:01:25.762Z,235.82
2022-12-06T15:04:02.777Z,121.15
2022-12-06T15:06:36.757Z,186.63
2022-12-06T15:09:14.762Z,204.02
2022-12-06T15:12:05.064Z,215.35
2022-12-06T15:14:39.814Z,349.42
2022-12-06T15:17:11.749Z,222.10
2022-12-06T15:19:49.455Z,223.80
2022-12-06T15:22:29.204Z,205.43
2022-12-06T15:25:01.232Z,300.48
2022-12-06T15:27:34.487Z,198.90
2022-12-06T15:30:07.533Z,184.50
2022-12-06T15:32:39.574Z,234.65
2022-12-06T15:35:18.458Z,209.65
2022-12-06T15:37:50.752Z,204.50
2022-12-06T15:40:22.720Z,174.55
2022-12-06T15:42:57.843Z,308.52
2022-12-06T15:45:34.064Z,278.33
2022-12-06T15:48:06.949Z,182.50
2022-12-06T15:50:38.893Z,233.52
2022-12-06T15:53:14.730Z,183.38
2022-12-06T15:55:47.345Z,191.77
2022-12-06T15:58:20.122Z,145.32
2022-12-06T16:00:52.062Z,215.80
2022-12-06T16:03:23.954Z,200.10
2022-12-06T16:05:57.303Z,241.38
2022-12-06T16:08:29.262Z,246.55
2022-12-06T16:11:11.684Z,164.77
2022-12-06T16:13:44.541Z,189.60
2022-12-06T16:16:19.763Z,253.35
2022-12-06T16:18:51.906Z,253.07
2022-12-06T16:21:27.655Z,210.13
2022-12-06T16:24:13.938Z,171.13
2022-12-06T16:26:46.449Z,161.77
2022-12-06T16:29:23.450Z,290.20
2022-12-06T16:31:55.422Z,278.67
2022-12-06T16:34:28.801Z,287.85
2022-12-06T16:37:03.156Z,163.35
2022-12-06T16:39:35.745Z,217.95
2022-12-06T16:42:07.678Z,237.68
2022-12-06T16:44:51.613Z,184.52
2022-12-06T16:49:54.464Z,217.10
2022-12-06T16:52:26.424Z,177.65
2022-12-06T16:54:58.605Z,192.38
2022-12-06T16:57:30.814Z,241.05
2022-12-06T17:00:05.262Z,178.65
2022-12-06T17:02:37.416Z,253.25
2022-12-06T17:05:17.925Z,194.25
2022-12-06T17:07:50.621Z,129.02
2022-12-06T17:10:22.842Z,152.68
2022-12-06T17:12:54.749Z,151.80
2022-12-06T17:15:26.761Z,115.93
2022-12-06T17:17:58.777Z,88.45
2022-12-06T17:20:30.705Z,93.65
2022-12-06T17:23:03.614Z,97.80
2022-12-06T17:25:35.627Z,116.03
2022-12-06T17:28:07.585Z,113.65
2022-12-06T17:30:40.181Z,103.20
2022-12-06T17:33:12.123Z,102.55
2022-12-06T17:35:44.131Z,114.38
2022-12-06T17:38:16.142Z,105.45
2022-12-06T17:40:48.117Z,93.07
2022-12-06T17:43:20.054Z,164.40
2022-12-06T17:45:52.317Z,126.78
2022-12-06T17:48:24.344Z,145.48
2022-12-06T17:50:56.510Z,132.23
2022-12-06T17:53:28.534Z,135.85
2022-12-06T17:56:22.239Z,91.10
2022-12-06T17:58:55.660Z,127.07
2022-12-06T18:01:50.897Z,128.52
2022-12-06T18:04:21.046Z,108.65
2022-12-06T18:06:53.865Z,120.68
2022-12-06T18:09:26.026Z,120.93
2022-12-06T18:11:58.307Z,145.85
2022-12-06T18:14:30.445Z,150.35
2022-12-06T18:17:03.048Z,114.18
2022-12-06T18:19:35.313Z,100.80
2022-12-06T18:22:08.060Z,121.40
2022-12-06T18:24:39.952Z,157.45
2022-12-06T18:27:11.974Z,133.80
2022-12-06T18:29:43.997Z,151.52
2022-12-06T18:32:16.013Z,155.80
2022-12-06T18:34:48.013Z,170.30
2022-12-06T18:37:19.943Z,171.85
2022-12-06T18:39:51.922Z,169.38
2022-12-06T18:42:23.846Z,155.55
2022-12-06T18:44:58.501Z,204.05
2022-12-06T18:47:30.802Z,166.43
2022-12-06T18:50:02.905Z,215.63
2022-12-06T18:52:35.746Z,135.73
2022-12-06T18:55:08.417Z,161.98
2022-12-06T18:57:40.504Z,142.70
2022-12-06T19:00:13.133Z,181.80
2022-12-06T19:02:45.084Z,142.18
2022-12-06T19:05:33.066Z,129.07
2022-12-06T19:08:09.958Z,112.00
2022-12-06T19:10:42.319Z,102.93
2022-12-06T19:13:14.266Z,121.68
2022-12-06T19:15:46.222Z,143.38
2022-12-06T19:18:18.164Z,121.53
2022-12-06T19:20:50.143Z,129.57
2022-12-06T19:23:23.010Z,186.73
2022-12-06T19:26:05.011Z,165.50
2022-12-06T19:28:40.438Z,157.20
2022-12-06T19:31:14.470Z,165.60
2022-12-06T19:33:47.077Z,161.35
2022-12-06T19:36:24.896Z,106.05
2022-12-06T19:39:02.304Z,105.45
2022-12-06T19:41:54.702Z,108.75
2022-12-06T19:44:27.688Z,118.05
2022-12-06T19:46:59.829Z,88.60
2022-12-06T19:49:34.807Z,92.72
2022-12-06T19:52:06.917Z,116.65
2022-12-06T19:54:40.465Z,102.07
2022-12-06T19:57:12.410Z,145.25
2022-12-06T19:59:44.414Z,173.63
2022-12-06T20:02:16.391Z,115.60
2022-12-06T20:04:49.078Z,112.85
2022-12-06T20:07:21.053Z,87.97
2022-12-06T20:09:53.003Z,128.77
2022-12-06T20:12:24.947Z,116.72
2022-12-06T20:14:56.984Z,108.07
2022-12-06T20:17:28.997Z,101.05
2022-12-06T20:20:02.419Z,81.50
2022-12-06T20:22:34.533Z,114.63
2022-12-06T20:25:06.667Z,121.22
2022-12-06T20:27:53.907Z,111.57
2022-12-06T20:30:26.038Z,139.30
2022-12-06T20:32:57.998Z,104.47
2022-12-06T20:35:30.003Z,95.10
2022-12-06T20:38:01.980Z,90.10
2022-12-06T20:40:34.897Z,101.38
2022-12-06T20:43:06.829Z,94.18
2022-12-06T20:45:38.989Z,81.07
2022-12-06T20:48:10.959Z,98.65
2022-12-06T20:50:42.921Z,103.90
2022-12-06T20:53:14.820Z,113.85
2022-12-06T20:55:46.768Z,103.43
2022-12-06T20:58:18.752Z,78.53
2022-12-06T21:00:50.717Z,80.18
2022-12-06T21:03:22.766Z,79.70
2022-12-06T21:06:01.971Z,116.65
2022-12-06T21:08:34.314Z,114.03
2022-12-06T21:11:24.119Z,90.35
2022-12-06T21:13:58.205Z,103.57
2022-12-06T21:16:31.925Z,108.55
2022-12-06T21:19:09.570Z,81.05
2022-12-06T21:21:45.300Z,99.72
2022-12-06T21:24:20.289Z,88.40
2022-12-06T21:26:52.321Z,92.80
2022-12-06T21:29:30.440Z,77.07
2022-12-06T21:32:03.214Z,74.50
2022-12-06T21:34:35.330Z,92.38
2022-12-06T21:37:07.721Z,116.78
2022-12-06T21:39:39.662Z,100.32
2022-12-06T21:42:15.671Z,104.88
2022-12-06T21:44:47.791Z,79.70
2022-12-06T21:47:19.796Z,89.25
2022-12-06T21:49:51.744Z,80.07
2022-12-06T21:52:23.744Z,65.50
2022-12-06T21:54:56.805Z,75.65
2022-12-06T21:57:28.741Z,65.30
2022-12-06T22:00:01.152Z,63.40
2022-12-06T22:02:33.615Z,75.40
2022-12-06T22:05:06.089Z,83.55
2022-12-06T22:07:38.102Z,70.43
2022-12-06T22:10:11.305Z,75.32
2022-12-06T22:12:43.343Z,65.18
2022-12-06T22:15:18.357Z,78.90
2022-12-06T22:17:50.316Z,71.95
2022-12-06T22:20:22.304Z,68.57
2022-12-06T22:22:54.245Z,66.72
2022-12-06T22:25:26.351Z,64.97
2022-12-06T22:27:58.298Z,56.85
2022-12-06T22:30:30.250Z,63.38
2022-12-06T22:33:02.239Z,64.68
2022-12-06T22:35:34.382Z,60.97
2022-12-06T22:38:06.323Z,57.42
2022-12-06T22:40:38.442Z,62.97
2022-12-06T22:43:10.473Z,75.45
2022-12-06T22:45:42.404Z,67.40
2022-12-06T22:48:14.397Z,71.93
2022-12-06T22:50:46.395Z,63.85
2022-12-06T22:53:18.373Z,50.97
2022-12-06T22:55:50.233Z,60.03
2022-12-06T22:58:22.443Z,46.03
2022-12-06T23:00:54.339Z,44.35
2022-12-06T23:03:26.326Z,41.72
2022-12-06T23:05:59.873Z,44.20
2022-12-06T23:08:32.116Z,39.35
2022-12-06T23:11:11.947Z,38.67
2022-12-06T23:13:44.380Z,39.65
2022-12-06T23:16:22.127Z,45.50
2022-12-06T23:18:54.732Z,57.95
2022-12-06T23:21:35.584Z,69.97
2022-12-06T23:26:45.470Z,84.78
2022-12-06T23:29:17.617Z,56.70
2022-12-06T23:31:49.688Z,50.15
2022-12-06T23:34:26.950Z,34.15
2022-12-06T23:36:58.950Z,43.55
2022-12-06T23:39:31.004Z,58.42
2022-12-06T23:42:02.931Z,54.13
2022-12-06T23:44:35.132Z,49.88
2022-12-06T23:47:07.180Z,45.28
2022-12-06T23:49:39.150Z,60.03
2022-12-06T23:52:11.090Z,61.08
2022-12-06T23:54:43.058Z,61.90
2022-12-06T23:57:15.328Z,50.92
2022-12-06T23:59:47.256Z,72.70
